Time;durP1;ratioP1;P1;durP2;ratioP2;P2;SDS_P1;SDS_P2;PMS_P1;PMS_P2;Temp;Humidity;BMP_temperature;BMP_pressure;BME280_temperature;BME280_humidity;BME280_pressure;Samples;Min_cycle;Max_cycle;Signal;HPM_P1;HPM_P2
2021/09/02 00:00:45;;;;;;;13.37;8.63;;;17.90;17.30;;;;;;5052859;28;20617;-78
2021/09/02 00:03:11;;;;;;;13.40;8.23;;;18.00;16.90;;;;;;5052639;28;20172;-78
2021/09/02 00:05:36;;;;;;;13.13;9.10;;;18.10;13.50;;;;;;5051444;28;20524;-78
2021/09/02 00:08:02;;;;;;;14.77;9.17;;;17.90;12.20;;;;;;5051379;28;20545;-78
2021/09/02 00:10:28;;;;;;;14.30;8.37;;;17.90;15.60;;;;;;5051448;28;20180;-78
2021/09/02 00:12:54;;;;;;;13.73;8.33;;;18.00;16.40;;;;;;5052682;28;20173;-78
2021/09/02 00:15:20;;;;;;;12.33;8.47;;;18.00;16.30;;;;;;5052515;28;20219;-78
2021/09/02 00:17:46;;;;;;;13.30;7.70;;;18.10;8.60;;;;;;5052691;28;20714;-78
2021/09/02 00:20:12;;;;;;;15.37;8.13;;;18.20;2.90;;;;;;5052622;28;20212;-78
2021/09/02 00:22:38;;;;;;;11.60;7.73;;;18.20;1.00;;;;;;5052215;28;20169;-78
2021/09/02 00:25:04;;;;;;;11.60;7.10;;;18.00;1.00;;;;;;5052651;28;20177;-78
2021/09/02 00:27:30;;;;;;;11.30;6.50;;;17.80;4.50;;;;;;5051535;28;20530;-78
2021/09/02 00:29:56;;;;;;;10.83;7.40;;;17.70;2.70;;;;;;5056096;28;20222;-78
2021/09/02 00:32:21;;;;;;;12.37;7.17;;;17.70;2.60;;;;;;5075357;28;20180;-78
2021/09/02 00:34:47;;;;;;;11.90;6.93;;;17.70;4.00;;;;;;5068886;28;20222;-77
2021/09/02 00:37:13;;;;;;;12.47;7.43;;;17.70;4.50;;;;;;5054184;28;20182;-78
2021/09/02 00:39:38;;;;;;;11.00;6.73;;;17.70;3.80;;;;;;5058036;28;20169;-79
2021/09/02 00:42:04;;;;;;;12.23;7.23;;;17.70;3.60;;;;;;5056703;28;20173;-78
2021/09/02 00:44:35;;;;;;;13.80;7.33;;;17.70;4.50;;;;;;5056428;28;20683;-78
2021/09/02 00:47:06;;;;;;;14.47;6.97;;;17.70;1.60;;;;;;5057118;28;20211;-78
2021/09/02 00:49:32;;;;;;;13.50;7.03;;;17.80;5.30;;;;;;5058277;28;20244;-79
2021/09/02 00:52:09;;;;;;;11.27;6.63;;;17.80;3.70;;;;;;5057616;28;20222;-78
2021/09/02 00:54:35;;;;;;;12.47;7.00;;;17.80;1.00;;;;;;5057331;28;20207;-77
2021/09/02 00:57:00;;;;;;;9.47;6.70;;;17.70;1.00;;;;;;5076743;28;20157;-78
2021/09/02 00:59:27;;;;;;;11.70;6.50;;;17.70;1.00;;;;;;5079239;28;20165;-78
2021/09/02 01:01:56;;;;;;;11.33;6.57;;;17.70;1.00;;;;;;5066513;28;20648;-78
2021/09/02 01:04:22;;;;;;;11.10;6.47;;;17.80;1.00;;;;;;5059648;28;20215;-78
2021/09/02 01:06:52;;;;;;;13.03;6.53;;;17.80;1.00;;;;;;5059306;28;20538;-79
2021/09/02 01:09:21;;;;;;;10.10;6.20;;;17.80;1.00;;;;;;5056187;28;20176;-77
2021/09/02 01:11:46;;;;;;;13.23;7.20;;;17.90;1.00;;;;;;5055571;28;20175;-78
2021/09/02 01:14:17;;;;;;;10.93;6.43;;;17.90;1.00;;;;;;5055385;28;20165;-78
2021/09/02 01:16:45;;;;;;;14.63;6.87;;;17.80;1.40;;;;;;5055366;28;20183;-78
2021/09/02 01:19:10;;;;;;;13.03;6.83;;;17.60;5.60;;;;;;5055377;28;20178;-78
2021/09/02 01:21:36;;;;;;;10.47;6.53;;;17.60;4.40;;;;;;5055521;28;20559;-78
2021/09/02 01:24:02;;;;;;;10.60;6.53;;;17.70;6.20;;;;;;5054062;28;20178;-78
2021/09/02 01:26:27;;;;;;;12.47;6.33;;;17.60;10.10;;;;;;5053880;28;20177;-78
2021/09/02 01:28:53;;;;;;;9.77;6.03;;;17.50;9.20;;;;;;5055460;28;20173;-78
2021/09/02 01:31:20;;;;;;;11.23;6.33;;;17.60;11.30;;;;;;5055113;28;20572;-78
2021/09/02 01:33:50;;;;;;;12.80;7.00;;;17.50;11.10;;;;;;5054949;28;20542;-79
2021/09/02 01:36:16;;;;;;;10.37;6.47;;;17.50;11.90;;;;;;5054991;28;20205;-78
2021/09/02 01:38:43;;;;;;;12.37;6.37;;;17.50;10.70;;;;;;5055205;28;20165;-78
2021/09/02 01:41:09;;;;;;;14.23;6.90;;;17.50;14.00;;;;;;5053779;28;20215;-78
2021/09/02 01:43:34;;;;;;;10.10;6.33;;;17.50;12.50;;;;;;5055031;28;20161;-78
2021/09/02 01:46:00;;;;;;;14.63;6.87;;;17.60;14.20;;;;;;5055085;28;20582;-77
2021/09/02 01:48:30;;;;;;;10.57;6.63;;;17.50;11.40;;;;;;5054329;28;20169;-78
2021/09/02 01:50:55;;;;;;;12.70;6.40;;;17.50;11.00;;;;;;5053591;28;20194;-78
2021/09/02 01:53:21;;;;;;;10.50;6.43;;;17.50;13.40;;;;;;5054838;28;20579;-79
2021/09/02 01:55:47;;;;;;;12.33;6.40;;;17.40;15.60;;;;;;5054751;28;20668;-79
2021/09/02 01:58:14;;;;;;;10.00;6.37;;;17.40;15.10;;;;;;5054665;28;20637;-79
2021/09/02 02:00:40;;;;;;;12.87;6.60;;;17.50;10.60;;;;;;5054629;28;20177;-78
2021/09/02 02:03:06;;;;;;;11.10;6.20;;;17.50;11.20;;;;;;5054178;28;20571;-79
2021/09/02 02:05:32;;;;;;;10.53;6.47;;;17.50;13.10;;;;;;5054791;28;20178;-78
2021/09/02 02:07:59;;;;;;;11.30;6.10;;;17.60;12.20;;;;;;5054519;28;20161;-78
2021/09/02 02:10:28;;;;;;;11.50;6.43;;;17.60;12.30;;;;;;5054412;28;20261;-78
2021/09/02 02:12:56;;;;;;;9.20;6.13;;;17.60;6.30;;;;;;5053139;28;20239;-77
2021/09/02 02:15:22;;;;;;;12.03;6.37;;;17.60;5.30;;;;;;5054439;28;20764;-78
2021/09/02 02:17:49;;;;;;;9.57;6.23;;;17.70;5.70;;;;;;5052645;28;20197;-78
2021/09/02 02:20:14;;;;;;;11.37;6.50;;;17.60;10.70;;;;;;5054231;28;20174;-78
2021/09/02 02:22:41;;;;;;;11.73;6.77;;;17.60;11.00;;;;;;5054136;28;20169;-77
2021/09/02 02:25:08;;;;;;;11.83;7.17;;;17.50;7.50;;;;;;5054315;28;20173;-77
2021/09/02 02:27:34;;;;;;;11.43;6.80;;;17.40;12.10;;;;;;5054117;28;20174;-78
2021/09/02 02:30:00;;;;;;;13.43;6.80;;;17.40;9.70;;;;;;5054169;28;20175;-77
2021/09/02 02:32:26;;;;;;;12.90;6.83;;;17.40;10.40;;;;;;5053770;28;20169;-77
2021/09/02 02:34:51;;;;;;;12.27;6.93;;;17.40;10.30;;;;;;5053758;28;20224;-78
2021/09/02 02:37:17;;;;;;;11.40;6.53;;;17.30;11.80;;;;;;5053870;28;20176;-78
2021/09/02 02:39:44;;;;;;;11.40;6.50;;;17.40;14.00;;;;;;5053823;28;20193;-78
2021/09/02 02:42:10;;;;;;;14.30;7.07;;;17.50;13.80;;;;;;5054074;28;20187;-78
2021/09/02 02:44:37;;;;;;;9.13;6.73;;;17.40;15.20;;;;;;5053725;28;20697;-79
2021/09/02 02:47:04;;;;;;;13.93;7.00;;;17.30;14.80;;;;;;5053697;28;20169;-78
2021/09/02 02:49:30;;;;;;;14.87;6.67;;;17.30;17.30;;;;;;5052185;28;20181;-78
2021/09/02 02:51:56;;;;;;;11.73;6.17;;;17.30;15.80;;;;;;5053513;28;20180;-78
2021/09/02 02:54:21;;;;;;;11.40;6.47;;;17.10;18.40;;;;;;5053657;28;20204;-78
2021/09/02 02:56:47;;;;;;;10.93;5.90;;;17.00;20.90;;;;;;5052510;28;20189;-80
2021/09/02 02:59:13;;;;;;;12.33;6.70;;;17.10;20.40;;;;;;5052079;28;20184;-77
2021/09/02 03:01:39;;;;;;;12.93;6.70;;;17.10;19.70;;;;;;5064338;28;20177;-77
2021/09/02 03:04:04;;;;;;;14.30;6.53;;;17.20;20.80;;;;;;5057811;28;20173;-77
2021/09/02 03:06:30;;;;;;;12.47;6.80;;;17.20;20.10;;;;;;5074402;28;20153;-77
2021/09/02 03:08:56;;;;;;;12.53;6.57;;;17.20;21.20;;;;;;5078728;28;20172;-78
2021/09/02 03:11:22;;;;;;;9.20;6.50;;;17.10;18.30;;;;;;5070420;28;20200;-79
2021/09/02 03:13:48;;;;;;;12.10;6.70;;;17.20;19.10;;;;;;5056669;28;20173;-78
2021/09/02 03:16:14;;;;;;;10.47;6.37;;;17.20;21.60;;;;;;5056503;28;20200;-77
2021/09/02 03:18:40;;;;;;;13.63;6.80;;;17.10;22.00;;;;;;5053832;28;20201;-78
2021/09/02 03:21:07;;;;;;;12.53;6.63;;;17.10;24.10;;;;;;5053423;28;20567;-78
2021/09/02 03:23:33;;;;;;;12.53;6.70;;;17.10;23.80;;;;;;5053271;28;20571;-78
2021/09/02 03:25:59;;;;;;;10.93;6.10;;;17.10;25.40;;;;;;5053180;28;20216;-78
2021/09/02 03:28:25;;;;;;;10.63;6.63;;;17.00;23.60;;;;;;5053155;28;20211;-78
2021/09/02 03:30:50;;;;;;;9.87;7.00;;;17.00;25.40;;;;;;5051644;28;20632;-79
2021/09/02 03:33:16;;;;;;;9.87;6.10;;;17.00;26.50;;;;;;5051780;28;20181;-79
2021/09/02 03:35:41;;;;;;;11.80;6.70;;;16.80;28.90;;;;;;5052821;28;20672;-78
2021/09/02 03:38:07;;;;;;;9.63;6.53;;;16.70;33.10;;;;;;5061417;28;20173;-78
2021/09/02 03:40:33;;;;;;;10.17;6.43;;;16.80;32.40;;;;;;5072660;28;20164;-78
2021/09/02 03:42:59;;;;;;;11.40;7.23;;;16.80;33.10;;;;;;5065787;28;20174;-78
2021/09/02 03:45:25;;;;;;;12.13;6.50;;;16.80;34.70;;;;;;5054001;28;20652;-78
2021/09/02 03:47:51;;;;;;;12.77;7.47;;;16.80;32.20;;;;;;5052844;28;20173;-79
2021/09/02 03:50:18;;;;;;;13.73;6.90;;;16.70;35.30;;;;;;5052771;28;20206;-78
2021/09/02 03:52:45;;;;;;;12.10;7.37;;;16.60;38.90;;;;;;5053296;28;20625;-79
2021/09/02 03:55:12;;;;;;;13.93;7.10;;;16.60;38.10;;;;;;5053400;28;20201;-77
2021/09/02 03:57:39;;;;;;;9.77;6.43;;;16.70;37.10;;;;;;5052984;28;20240;-77
2021/09/02 04:00:08;;;;;;;13.40;7.27;;;16.60;36.20;;;;;;5052270;28;20222;-78
2021/09/02 04:02:33;;;;;;;11.13;6.70;;;16.70;33.30;;;;;;5052810;28;20165;-78
2021/09/02 04:04:59;;;;;;;11.93;6.77;;;16.70;29.50;;;;;;5052477;28;20671;-78
2021/09/02 04:07:25;;;;;;;11.83;7.50;;;16.70;31.80;;;;;;5066979;28;20172;-77
2021/09/02 04:09:51;;;;;;;12.43;7.33;;;16.70;32.50;;;;;;5077645;28;20157;-78
2021/09/02 04:12:16;;;;;;;14.50;7.50;;;16.70;33.80;;;;;;5057836;28;20196;-78
2021/09/02 04:14:42;;;;;;;12.53;6.93;;;16.60;31.50;;;;;;5056943;28;20247;-80
2021/09/02 04:17:11;;;;;;;10.90;7.13;;;16.60;33.20;;;;;;5056674;28;20189;-78
2021/09/02 04:19:50;;;;;;;11.03;6.90;;;16.60;28.90;;;;;;5055634;28;20177;-78
2021/09/02 04:22:16;;;;;;;11.90;7.03;;;16.60;28.50;;;;;;5056598;28;20222;-78
2021/09/02 04:24:42;;;;;;;12.53;7.27;;;16.50;26.80;;;;;;5056459;28;20175;-78
2021/09/02 04:27:10;;;;;;;13.97;7.87;;;16.50;28.20;;;;;;5056449;28;20177;-77
2021/09/02 04:29:37;;;;;;;15.60;8.00;;;16.50;28.30;;;;;;5056123;28;20169;-78
2021/09/02 04:32:03;;;;;;;13.20;8.73;;;16.50;26.80;;;;;;5064172;28;20188;-78
2021/09/02 04:34:28;;;;;;;13.47;8.90;;;16.40;30.00;;;;;;5071365;28;20208;-77
2021/09/02 04:36:54;;;;;;;13.50;8.87;;;16.40;29.80;;;;;;5070874;28;20215;-77
2021/09/02 04:39:19;;;;;;;16.13;9.13;;;16.40;31.10;;;;;;5055324;28;20176;-79
2021/09/02 04:41:45;;;;;;;13.43;8.20;;;16.30;32.30;;;;;;5056976;28;20184;-79
2021/09/02 04:44:11;;;;;;;12.57;8.93;;;16.40;32.10;;;;;;5054852;28;20594;-78
2021/09/02 04:46:36;;;;;;;16.23;9.87;;;16.40;30.70;;;;;;5056038;28;20516;-78
2021/09/02 04:49:02;;;;;;;15.40;9.93;;;16.30;30.80;;;;;;5055871;28;20203;-78
2021/09/02 04:51:28;;;;;;;14.37;9.97;;;16.30;31.90;;;;;;5054727;28;20177;-79
2021/09/02 04:53:53;;;;;;;15.07;9.83;;;16.30;31.90;;;;;;5056049;28;20251;-78
2021/09/02 04:56:19;;;;;;;17.37;10.30;;;16.30;34.10;;;;;;5055512;28;20211;-78
2021/09/02 04:58:45;;;;;;;15.97;10.13;;;16.30;33.40;;;;;;5055711;28;20169;-78
2021/09/02 05:01:10;;;;;;;16.37;10.33;;;16.40;33.10;;;;;;5055327;28;20180;-78
2021/09/02 05:03:36;;;;;;;17.03;11.00;;;16.40;33.40;;;;;;5055201;28;20180;-78
2021/09/02 05:06:01;;;;;;;19.37;12.03;;;16.40;32.90;;;;;;5054165;28;20164;-78
2021/09/02 05:08:27;;;;;;;17.47;12.07;;;16.40;32.80;;;;;;5054317;28;20273;-79
2021/09/02 05:10:53;;;;;;;17.57;12.53;;;16.40;31.10;;;;;;5054313;28;20232;-79
2021/09/02 05:13:19;;;;;;;19.60;13.50;;;16.30;35.50;;;;;;5055371;28;20169;-79
2021/09/02 05:15:44;;;;;;;19.27;14.83;;;16.30;33.80;;;;;;5055347;28;20218;-79
2021/09/02 05:18:10;;;;;;;20.80;15.33;;;16.20;34.50;;;;;;5055437;28;20665;-79
2021/09/02 05:20:36;;;;;;;21.23;16.20;;;16.20;34.50;;;;;;5055376;28;20595;-79
2021/09/02 05:23:01;;;;;;;24.43;17.13;;;16.30;32.40;;;;;;5053526;28;20195;-78
2021/09/02 05:25:27;;;;;;;21.90;16.57;;;16.30;33.50;;;;;;5055401;28;20252;-78
2021/09/02 05:27:53;;;;;;;24.73;18.50;;;16.30;32.80;;;;;;5054102;28;20179;-80
2021/09/02 05:30:19;;;;;;;24.87;18.07;;;16.20;37.00;;;;;;5055342;28;20203;-78
2021/09/02 05:32:45;;;;;;;26.17;18.83;;;16.30;36.20;;;;;;5055602;28;20651;-78
2021/09/02 05:35:12;;;;;;;24.27;18.43;;;16.20;37.70;;;;;;5055034;28;20216;-79
2021/09/02 05:37:38;;;;;;;27.13;18.83;;;16.20;38.80;;;;;;5055164;28;20211;-79
2021/09/02 05:40:05;;;;;;;27.13;19.20;;;16.10;41.10;;;;;;5055439;28;20276;-81
2021/09/02 05:42:32;;;;;;;26.87;18.77;;;16.10;39.50;;;;;;5055555;28;20165;-78
2021/09/02 05:44:58;;;;;;;27.50;18.73;;;16.10;37.30;;;;;;5056823;28;20179;-77
2021/09/02 05:47:24;;;;;;;25.67;17.77;;;16.20;38.40;;;;;;5056720;28;20527;-77
2021/09/02 05:49:49;;;;;;;24.90;19.00;;;16.20;36.30;;;;;;5054517;28;20184;-78
2021/09/02 05:52:16;;;;;;;23.53;18.67;;;16.30;37.00;;;;;;5054928;28;20678;-79
2021/09/02 05:54:41;;;;;;;25.70;18.27;;;16.30;37.00;;;;;;5054685;28;20205;-79
2021/09/02 05:57:07;;;;;;;25.80;18.77;;;16.30;37.00;;;;;;5054365;28;20176;-81
2021/09/02 05:59:33;;;;;;;23.60;18.80;;;16.20;38.80;;;;;;5054451;28;20185;-81
2021/09/02 06:01:59;;;;;;;21.80;16.97;;;16.20;35.50;;;;;;5055018;28;20164;-76
2021/09/02 06:04:25;;;;;;;25.80;18.17;;;16.20;36.00;;;;;;5065727;28;20181;-78
2021/09/02 06:06:50;;;;;;;23.10;17.33;;;16.20;37.30;;;;;;5054517;28;20169;-78
2021/09/02 06:09:16;;;;;;;24.90;16.33;;;16.10;37.30;;;;;;5068220;28;20675;-78
2021/09/02 06:11:42;;;;;;;24.10;16.87;;;16.20;38.30;;;;;;5071252;28;20701;-77
2021/09/02 06:14:08;;;;;;;23.00;17.17;;;16.30;35.30;;;;;;5062729;28;20165;-80
2021/09/02 06:16:33;;;;;;;25.20;17.63;;;16.30;35.60;;;;;;5063244;28;20242;-77
2021/09/02 06:18:59;;;;;;;22.00;15.50;;;16.30;36.50;;;;;;5073035;28;20631;-78
2021/09/02 06:21:25;;;;;;;24.23;15.83;;;16.40;34.30;;;;;;5074101;28;20534;-76
2021/09/02 06:23:51;;;;;;;22.60;15.33;;;16.30;36.20;;;;;;5073752;28;20178;-77
2021/09/02 06:26:16;;;;;;;22.40;15.63;;;16.40;32.60;;;;;;5073921;28;20547;-76
2021/09/02 06:28:42;;;;;;;24.87;16.20;;;16.40;33.00;;;;;;5074021;28;20172;-77
2021/09/02 06:31:08;;;;;;;24.47;15.30;;;16.50;30.90;;;;;;5072167;28;20164;-77
2021/09/02 06:33:35;;;;;;;18.27;14.60;;;16.60;31.50;;;;;;5071349;28;20208;-79
2021/09/02 06:36:00;;;;;;;23.37;15.50;;;16.70;29.80;;;;;;5073005;28;20199;-77
2021/09/02 06:38:26;;;;;;;25.53;15.70;;;16.70;32.20;;;;;;5073543;28;20209;-77
2021/09/02 06:40:52;;;;;;;20.03;14.17;;;16.70;28.20;;;;;;5073934;28;20179;-78
2021/09/02 06:43:17;;;;;;;20.90;14.20;;;16.70;27.20;;;;;;5073757;28;20172;-78
2021/09/02 06:45:43;;;;;;;21.97;12.90;;;16.70;26.20;;;;;;5073825;28;20605;-78
2021/09/02 06:48:09;;;;;;;24.23;15.30;;;16.70;25.40;;;;;;5074247;28;20172;-77
2021/09/02 06:50:34;;;;;;;17.10;12.60;;;16.70;29.20;;;;;;5073565;28;20640;-76
2021/09/02 06:53:00;;;;;;;24.90;13.90;;;16.80;24.90;;;;;;5073476;28;20624;-77
2021/09/02 06:55:26;;;;;;;22.23;13.57;;;16.90;25.90;;;;;;5073157;28;20298;-77
2021/09/02 06:57:52;;;;;;;23.00;14.10;;;16.90;24.30;;;;;;5073485;28;20187;-78
2021/09/02 07:00:18;;;;;;;21.63;12.73;;;17.00;23.20;;;;;;5073395;28;20219;-79
2021/09/02 07:02:43;;;;;;;22.87;13.63;;;17.00;22.90;;;;;;5073793;28;20209;-78
2021/09/02 07:05:10;;;;;;;19.43;12.90;;;16.90;23.70;;;;;;5073442;28;20184;-78
2021/09/02 07:07:35;;;;;;;25.53;14.50;;;17.00;23.50;;;;;;5073068;28;20164;-78
2021/09/02 07:10:02;;;;;;;18.60;13.43;;;17.10;23.00;;;;;;5073172;28;20164;-77
2021/09/02 07:12:28;;;;;;;19.83;13.50;;;17.20;16.40;;;;;;5073724;28;20168;-77
2021/09/02 07:14:53;;;;;;;19.23;13.13;;;17.30;18.40;;;;;;5073623;28;20701;-78
2021/09/02 07:17:19;;;;;;;22.97;12.93;;;17.30;8.70;;;;;;5073294;28;20740;-78
2021/09/02 07:19:45;;;;;;;17.50;12.07;;;17.40;11.30;;;;;;5073023;28;20165;-77
2021/09/02 07:22:11;;;;;;;20.47;13.00;;;17.50;6.60;;;;;;5080085;28;20172;-76
2021/09/02 07:24:36;;;;;;;21.20;12.90;;;17.30;4.50;;;;;;5082203;28;20199;-78
2021/09/02 07:27:04;;;;;;;15.70;12.77;;;17.30;6.30;;;;;;5089200;28;20184;-79
2021/09/02 07:29:29;;;;;;;23.07;12.67;;;17.40;2.40;;;;;;5093067;28;20176;-76
2021/09/02 07:31:55;;;;;;;14.53;11.70;;;17.50;6.50;;;;;;5080443;28;20172;-78
2021/09/02 07:34:23;;;;;;;18.77;11.83;;;17.70;4.00;;;;;;5078532;28;20194;-78
2021/09/02 07:36:58;;;;;;;18.13;13.83;;;17.70;1.00;;;;;;5073714;28;20603;-78
2021/09/02 07:39:24;;;;;;;18.87;12.73;;;17.70;1.40;;;;;;5073349;28;20164;-77
2021/09/02 07:41:49;;;;;;;18.77;13.53;;;17.70;1.00;;;;;;5073213;28;20530;-77
2021/09/02 07:44:15;;;;;;;20.23;13.37;;;17.60;1.00;;;;;;5073116;28;20176;-78
2021/09/02 07:46:41;;;;;;;17.10;12.23;;;17.70;1.00;;;;;;5072927;28;20172;-78
2021/09/02 07:49:06;;;;;;;19.27;13.97;;;17.60;1.00;;;;;;5073287;28;20172;-77
2021/09/02 07:51:33;;;;;;;18.70;12.93;;;17.50;4.00;;;;;;5080857;28;20255;-77
2021/09/02 07:53:59;;;;;;;18.73;12.50;;;17.50;4.30;;;;;;5095331;28;20195;-77
2021/09/02 07:56:25;;;;;;;18.80;13.03;;;17.60;4.40;;;;;;5087741;28;20214;-77
2021/09/02 07:58:50;;;;;;;18.77;11.30;;;17.70;6.30;;;;;;5095789;28;20160;-78
2021/09/02 08:01:18;;;;;;;15.60;12.13;;;17.80;1.00;;;;;;5092849;28;20187;-77
2021/09/02 08:03:43;;;;;;;19.00;12.17;;;18.00;1.00;;;;;;5074579;28;20180;-77
2021/09/02 08:06:10;;;;;;;20.37;12.00;;;18.00;1.00;;;;;;5072289;28;20186;-77
2021/09/02 08:08:38;;;;;;;17.30;11.67;;;18.10;1.00;;;;;;5073335;28;20168;-78
2021/09/02 08:11:03;;;;;;;17.57;12.33;;;18.20;1.00;;;;;;5073023;28;20191;-79
2021/09/02 08:13:29;;;;;;;21.57;12.50;;;18.20;1.00;;;;;;5073007;28;20176;-77
2021/09/02 08:15:55;;;;;;;15.90;11.77;;;18.20;1.00;;;;;;5071380;28;20231;-77
2021/09/02 08:18:20;;;;;;;19.77;12.77;;;18.10;1.00;;;;;;5071892;28;20183;-78
2021/09/02 08:20:46;;;;;;;16.53;12.30;;;18.20;1.00;;;;;;5072476;28;20621;-77
2021/09/02 08:23:12;;;;;;;18.20;12.47;;;18.10;1.00;;;;;;5073136;28;20210;-77
2021/09/02 08:25:38;;;;;;;18.40;10.83;;;18.00;1.00;;;;;;5072891;28;20164;-79
2021/09/02 08:28:04;;;;;;;19.93;12.33;;;18.00;2.60;;;;;;5071964;28;20190;-78
2021/09/02 08:30:30;;;;;;;20.67;12.90;;;18.10;2.60;;;;;;5072061;28;20722;-78
2021/09/02 08:32:57;;;;;;;20.30;12.33;;;18.10;4.30;;;;;;5073318;28;20584;-78
2021/09/02 08:35:30;;;;;;;21.43;12.93;;;18.30;1.00;;;;;;5072528;28;20209;-77
2021/09/02 08:37:59;;;;;;;19.13;12.33;;;18.20;1.00;;;;;;5073013;28;20165;-79
2021/09/02 08:40:27;;;;;;;20.67;13.83;;;18.10;3.10;;;;;;5072706;28;20270;-77
2021/09/02 08:42:54;;;;;;;21.87;14.97;;;18.10;4.50;;;;;;5073213;28;20165;-77
2021/09/02 08:45:24;;;;;;;21.10;14.53;;;18.10;1.40;;;;;;5073419;28;20175;-77
2021/09/02 08:47:51;;;;;;;19.50;13.77;;;18.30;1.40;;;;;;5073790;28;20164;-77
2021/09/02 08:50:22;;;;;;;21.47;14.80;;;18.30;1.00;;;;;;5073429;28;20161;-78
2021/09/02 08:52:48;;;;;;;26.10;16.10;;;18.40;5.10;;;;;;5073827;28;20164;-79
2021/09/02 08:55:15;;;;;;;24.30;16.20;;;18.50;1.00;;;;;;5073520;28;20660;-78
2021/09/02 08:57:42;;;;;;;23.83;17.07;;;18.60;1.00;;;;;;5074137;28;20168;-77
2021/09/02 09:00:10;;;;;;;24.33;17.17;;;18.60;1.00;;;;;;5078224;28;20667;-78
2021/09/02 09:02:46;;;;;;;23.33;17.00;;;18.60;1.00;;;;;;5078183;28;20161;-78
2021/09/02 09:05:14;;;;;;;21.27;16.43;;;18.60;1.00;;;;;;5094760;28;20187;-77
2021/09/02 09:07:48;;;;;;;25.13;17.40;;;18.70;1.00;;;;;;5090393;28;20165;-79
2021/09/02 09:10:18;;;;;;;24.10;16.80;;;18.80;1.00;;;;;;5075848;28;20232;-78
2021/09/02 09:12:52;;;;;;;24.60;16.93;;;18.70;1.00;;;;;;5076172;28;20196;-78
2021/09/02 09:15:24;;;;;;;25.97;17.83;;;18.50;1.00;;;;;;5075829;28;20200;-77
2021/09/02 09:17:52;;;;;;;27.73;17.90;;;18.30;1.00;;;;;;5075421;28;20648;-77
2021/09/02 09:20:22;;;;;;;31.40;19.03;;;18.30;1.00;;;;;;5076986;28;20536;-77
2021/09/02 09:22:57;;;;;;;26.30;17.20;;;18.40;1.00;;;;;;5077067;28;20168;-77
2021/09/02 09:25:23;;;;;;;24.40;17.00;;;18.40;1.00;;;;;;5077252;28;20168;-77
2021/09/02 09:27:55;;;;;;;26.07;17.63;;;18.40;1.00;;;;;;5076176;28;20166;-78
2021/09/02 09:30:25;;;;;;;28.10;17.83;;;18.50;1.00;;;;;;5076069;28;20269;-77
2021/09/02 09:32:59;;;;;;;25.47;17.67;;;18.60;1.00;;;;;;5075364;28;20636;-78
2021/09/02 09:35:28;;;;;;;23.33;16.27;;;18.50;1.00;;;;;;5075984;28;20215;-78
2021/09/02 09:38:15;;;;;;;24.83;17.00;;;18.80;1.00;;;;;;5074726;28;20169;-78
2021/09/02 09:40:51;;;;;;;25.40;17.50;;;18.70;1.00;;;;;;5075877;28;20171;-78
2021/09/02 09:43:26;;;;;;;24.03;17.60;;;18.70;1.00;;;;;;5075401;28;20251;-78
2021/09/02 09:45:54;;;;;;;21.53;16.30;;;18.70;1.00;;;;;;5075462;28;20176;-77
2021/09/02 09:48:19;;;;;;;23.57;17.47;;;18.80;1.00;;;;;;5075034;28;20177;-77
2021/09/02 09:50:46;;;;;;;26.00;17.63;;;19.00;1.00;;;;;;5075442;28;20167;-78
2021/09/02 09:53:26;;;;;;;24.70;17.20;;;19.10;1.00;;;;;;5074848;28;20167;-78
2021/09/02 09:55:55;;;;;;;25.40;16.77;;;19.20;1.00;;;;;;5074580;28;20262;-77
2021/09/02 09:58:26;;;;;;;23.60;15.03;;;19.30;1.00;;;;;;5075520;28;20160;-77
2021/09/02 10:00:57;;;;;;;25.53;17.10;;;19.40;1.00;;;;;;5075373;28;20268;-76
2021/09/02 10:03:23;;;;;;;26.33;15.47;;;19.40;1.00;;;;;;5074511;28;20228;-77
2021/09/02 10:05:49;;;;;;;20.03;14.17;;;19.40;1.00;;;;;;5074863;28;20160;-77
2021/09/02 10:08:19;;;;;;;22.33;14.63;;;19.40;1.00;;;;;;5074324;28;20181;-77
2021/09/02 10:10:49;;;;;;;22.20;14.40;;;19.60;1.00;;;;;;5074382;28;20248;-78
2021/09/02 10:13:16;;;;;;;19.53;13.60;;;19.60;1.00;;;;;;5074317;28;20172;-79
2021/09/02 10:15:42;;;;;;;18.93;14.50;;;19.70;1.00;;;;;;5073844;28;20204;-78
2021/09/02 10:18:08;;;;;;;20.80;13.90;;;19.80;1.00;;;;;;5074232;28;20208;-78
2021/09/02 10:20:36;;;;;;;20.00;13.67;;;19.90;1.00;;;;;;5074545;28;20245;-78
2021/09/02 10:23:04;;;;;;;22.27;13.57;;;19.80;1.00;;;;;;5074388;28;20176;-77
2021/09/02 10:25:35;;;;;;;19.67;13.10;;;19.80;1.00;;;;;;5074328;28;20601;-78
2021/09/02 10:28:08;;;;;;;19.87;13.07;;;19.90;1.00;;;;;;5074411;28;20540;-77
2021/09/02 10:30:58;;;;;;;22.13;13.57;;;19.90;1.00;;;;;;5073568;28;20199;-76
2021/09/02 10:33:40;;;;;;;21.23;14.17;;;19.90;1.00;;;;;;5073883;28;20188;-77
2021/09/02 10:36:15;;;;;;;20.97;13.73;;;19.90;1.00;;;;;;5072370;28;20211;-78
2021/09/02 10:38:45;;;;;;;19.30;12.93;;;19.90;1.00;;;;;;5074532;28;20165;-77
2021/09/02 10:41:11;;;;;;;18.33;12.30;;;19.90;1.00;;;;;;5074814;28;20176;-77
2021/09/02 10:43:55;;;;;;;19.77;12.63;;;19.90;1.00;;;;;;5074572;28;20218;-79
2021/09/02 10:46:40;;;;;;;20.33;13.00;;;20.10;1.00;;;;;;5074513;28;20168;-77
2021/09/02 10:49:17;;;;;;;20.53;12.00;;;20.20;1.00;;;;;;5074314;28;20521;-76
2021/09/02 10:51:53;;;;;;;15.63;10.80;;;20.20;1.00;;;;;;5074067;28;20172;-79
2021/09/02 10:54:34;;;;;;;17.77;11.27;;;20.00;1.00;;;;;;5073967;28;20192;-78
2021/09/02 10:57:08;;;;;;;22.50;11.77;;;20.10;1.00;;;;;;5073804;28;20268;-78
2021/09/02 10:59:43;;;;;;;15.37;10.33;;;20.10;1.00;;;;;;5073573;28;20183;-78
2021/09/02 11:02:16;;;;;;;15.90;10.87;;;20.10;1.00;;;;;;5074656;28;20165;-78
2021/09/02 11:04:42;;;;;;;17.30;10.63;;;20.10;1.00;;;;;;5074337;28;20177;-78
2021/09/02 11:07:08;;;;;;;15.50;11.00;;;20.20;1.00;;;;;;5074151;28;20174;-77
2021/09/02 11:09:37;;;;;;;17.13;10.33;;;20.40;1.00;;;;;;5074089;28;20194;-77
2021/09/02 11:12:05;;;;;;;17.57;10.03;;;20.60;1.00;;;;;;5074561;28;20236;-78
2021/09/02 11:14:38;;;;;;;12.57;9.80;;;20.80;1.00;;;;;;5086537;28;20164;-77
2021/09/02 11:17:08;;;;;;;16.23;10.20;;;20.90;1.00;;;;;;5094821;28;20557;-77
2021/09/02 11:19:36;;;;;;;14.90;9.87;;;21.00;1.00;;;;;;5081385;28;20232;-78
2021/09/02 11:22:10;;;;;;;22.90;11.23;;;20.90;1.00;;;;;;5074094;28;20176;-78
2021/09/02 11:24:41;;;;;;;15.77;10.17;;;20.50;1.00;;;;;;5074752;28;20163;-78
2021/09/02 11:27:07;;;;;;;14.77;9.73;;;20.40;1.00;;;;;;5074235;28;20598;-77
2021/09/02 11:29:33;;;;;;;15.03;9.83;;;20.50;1.00;;;;;;5074077;28;20162;-77
2021/09/02 11:32:12;;;;;;;15.57;10.30;;;20.60;1.00;;;;;;5079966;28;20199;-76
2021/09/02 11:34:40;;;;;;;14.13;10.00;;;20.80;1.00;;;;;;5084927;28;20202;-76
2021/09/02 11:37:06;;;;;;;14.23;9.13;;;20.80;1.00;;;;;;5074100;28;20178;-78
2021/09/02 11:39:39;;;;;;;17.10;10.13;;;20.90;1.00;;;;;;5073940;28;20173;-76
2021/09/02 11:42:11;;;;;;;14.77;9.40;;;21.00;1.00;;;;;;5089035;28;20178;-79
2021/09/02 11:44:38;;;;;;;16.80;9.43;;;21.00;1.00;;;;;;5095991;28;20176;-76
2021/09/02 11:47:07;;;;;;;13.73;9.53;;;21.10;1.00;;;;;;5084133;28;20171;-78
2021/09/02 11:49:34;;;;;;;11.77;9.00;;;21.20;1.00;;;;;;5076762;28;20232;-76
2021/09/02 11:52:00;;;;;;;13.17;8.77;;;21.00;1.00;;;;;;5084542;28;20175;-76
2021/09/02 11:54:27;;;;;;;14.50;10.00;;;20.90;1.00;;;;;;5075947;28;20646;-79
2021/09/02 11:56:53;;;;;;;15.03;9.47;;;20.80;1.00;;;;;;5073695;28;20167;-78
2021/09/02 11:59:20;;;;;;;15.07;9.43;;;20.90;1.00;;;;;;5073748;28;20179;-78
2021/09/02 12:01:48;;;;;;;15.10;9.20;;;21.00;1.00;;;;;;5073775;28;20251;-78
2021/09/02 12:04:17;;;;;;;12.90;8.70;;;20.90;1.00;;;;;;5073473;28;20232;-77
2021/09/02 12:06:45;;;;;;;13.23;9.20;;;20.90;1.00;;;;;;5073168;28;20171;-79
2021/09/02 12:09:11;;;;;;;14.83;10.10;;;21.00;1.00;;;;;;5073313;28;20300;-78
2021/09/02 12:11:39;;;;;;;15.97;8.93;;;20.90;1.00;;;;;;5073654;28;20174;-79
2021/09/02 12:14:23;;;;;;;13.87;8.80;;;21.00;1.00;;;;;;5072556;28;20177;-77
2021/09/02 12:17:10;;;;;;;10.97;8.40;;;20.90;1.00;;;;;;5072918;28;20181;-77
2021/09/02 12:19:55;;;;;;;13.30;9.37;;;20.90;1.00;;;;;;5073323;28;20635;-77
2021/09/02 12:22:24;;;;;;;9.87;7.83;;;21.00;1.00;;;;;;5072936;28;20190;-78
2021/09/02 12:24:49;;;;;;;12.17;8.30;;;21.10;1.00;;;;;;5071840;28;20541;-78
2021/09/02 12:27:16;;;;;;;13.17;8.90;;;21.30;1.00;;;;;;5070960;28;20185;-77
2021/09/02 12:29:50;;;;;;;14.17;9.20;;;21.40;1.00;;;;;;5071762;28;20304;-77
2021/09/02 12:32:20;;;;;;;14.13;8.90;;;21.50;1.00;;;;;;5072305;28;20236;-77
2021/09/02 12:34:47;;;;;;;13.57;9.37;;;21.70;1.00;;;;;;5073878;28;20242;-78
2021/09/02 12:37:15;;;;;;;14.60;9.17;;;22.00;1.00;;;;;;5076591;28;20169;-78
2021/09/02 12:39:51;;;;;;;13.23;8.90;;;22.20;1.00;;;;;;5076407;28;20210;-78